createdAt,value
2022-11-16T00:00:05.431Z,97786.50
2022-11-16T00:02:32.717Z,97785.28
2022-11-16T00:04:59.314Z,97778.56
2022-11-16T00:07:25.945Z,97773.41
2022-11-16T00:09:52.630Z,97772.53
2022-11-16T00:12:20.500Z,97765.09
2022-11-16T00:14:47.177Z,97764.69
2022-11-16T00:17:13.678Z,97766.63
2022-11-16T00:19:40.244Z,97764.25
2022-11-16T00:22:06.764Z,97764.25
2022-11-16T00:24:33.329Z,97761.09
2022-11-16T00:26:59.923Z,97761.53
2022-11-16T00:29:27.779Z,97756.81
2022-11-16T00:31:55.132Z,97757.94
2022-11-16T00:34:22.026Z,97749.72
2022-11-16T00:36:48.819Z,97753.59
2022-11-16T00:39:18.447Z,97748.50
2022-11-16T00:41:45.163Z,97743.50
2022-11-16T00:44:12.217Z,97749.66
2022-11-16T00:46:40.602Z,97760.06
2022-11-16T00:49:07.287Z,97758.44
2022-11-16T00:51:34.368Z,97760.72
2022-11-16T00:54:01.270Z,97757.56
2022-11-16T00:56:27.813Z,97759.78
2022-11-16T00:58:54.475Z,97758.56
2022-11-16T01:01:21.233Z,97754.19
2022-11-16T01:03:49.150Z,97757.25
2022-11-16T01:06:16.366Z,97752.97
2022-11-16T01:08:43.784Z,97755.25
2022-11-16T01:11:12.793Z,97755.59
2022-11-16T01:13:39.282Z,97741.22
2022-11-16T01:16:06.310Z,97744.28
2022-11-16T01:18:33.038Z,97741.97
2022-11-16T01:21:01.120Z,97735.28
2022-11-16T01:23:27.624Z,97740.72
2022-11-16T01:25:56.676Z,97728.28
2022-11-16T01:28:24.349Z,97732.13
2022-11-16T01:30:51.000Z,97733.28
2022-11-16T01:33:17.482Z,97730.50
2022-11-16T01:35:44.227Z,97718.06
2022-11-16T01:38:12.141Z,97717.63
2022-11-16T01:40:39.151Z,97712.19
2022-11-16T01:43:15.416Z,97714.13
2022-11-16T01:45:42.503Z,97714.13
2022-11-16T01:48:10.564Z,97712.88
2022-11-16T01:50:38.271Z,97717.13
2022-11-16T01:53:07.494Z,97714.75
2022-11-16T01:55:37.008Z,97716.69
2022-11-16T01:58:04.243Z,97713.88
2022-11-16T02:00:30.806Z,97714.66
2022-11-16T02:02:57.335Z,97713.09
2022-11-16T02:05:33.642Z,97708.78
2022-11-16T02:08:27.395Z,97706.16
2022-11-16T02:11:15.809Z,97701.19
2022-11-16T02:13:51.410Z,97708.19
2022-11-16T02:16:28.208Z,97698.47
2022-11-16T02:19:06.127Z,97694.16
2022-11-16T02:21:40.959Z,97689.09
2022-11-16T02:24:35.622Z,97691.03
2022-11-16T02:27:34.695Z,97692.16
2022-11-16T02:30:04.262Z,97695.31
2022-11-16T02:32:36.373Z,97692.59
2022-11-16T02:35:07.850Z,97678.66
2022-11-16T02:37:37.814Z,97684.44
2022-11-16T02:40:07.961Z,97685.59
2022-11-16T02:42:39.264Z,97683.66
2022-11-16T02:45:12.498Z,97672.88
2022-11-16T02:47:41.855Z,97679.38
2022-11-16T02:50:15.196Z,97684.75
2022-11-16T02:52:41.845Z,97680.00
2022-11-16T02:55:08.859Z,97680.72
2022-11-16T02:57:43.726Z,97678.78
2022-11-16T03:00:20.024Z,97671.34
2022-11-16T03:02:53.620Z,97671.34
2022-11-16T03:05:24.259Z,97673.19
2022-11-16T03:07:59.934Z,97672.41
2022-11-16T03:10:26.938Z,97669.59
2022-11-16T03:12:53.717Z,97666.09
2022-11-16T03:15:21.737Z,97663.38
2022-11-16T03:17:50.274Z,97660.66
2022-11-16T03:20:20.690Z,97652.91
2022-11-16T03:22:50.662Z,97649.31
2022-11-16T03:25:20.222Z,97664.47
2022-11-16T03:27:52.809Z,97659.81
2022-11-16T03:30:24.160Z,97662.97
2022-11-16T03:32:56.858Z,97656.31
2022-11-16T03:35:26.910Z,97656.31
2022-11-16T03:37:57.503Z,97657.81
2022-11-16T03:40:27.768Z,97660.88
2022-11-16T03:42:56.481Z,97655.38
2022-11-16T03:45:24.654Z,97657.75
2022-11-16T03:47:51.140Z,97651.16
2022-11-16T03:50:17.820Z,97658.88
2022-11-16T03:52:44.339Z,97654.59
2022-11-16T03:55:10.875Z,97649.50
2022-11-16T03:57:37.350Z,97650.63
2022-11-16T04:00:05.085Z,97643.63
2022-11-16T04:02:32.948Z,97645.13
2022-11-16T04:04:59.442Z,97649.78
2022-11-16T04:07:26.020Z,97643.56
2022-11-16T04:09:52.576Z,97643.94
2022-11-16T04:12:19.115Z,97651.72
2022-11-16T04:14:45.640Z,97648.63
2022-11-16T04:17:13.230Z,97654.84
2022-11-16T04:19:41.054Z,97656.34
2022-11-16T04:22:15.522Z,97655.91
2022-11-16T04:24:45.992Z,97651.97
2022-11-16T04:27:15.479Z,97647.34
2022-11-16T04:29:42.341Z,97642.25
2022-11-16T04:32:09.261Z,97648.47
2022-11-16T04:34:35.773Z,97642.25
2022-11-16T04:37:03.657Z,97652.31
2022-11-16T04:39:30.152Z,97649.94
2022-11-16T04:41:56.842Z,97645.75
2022-11-16T04:44:28.771Z,97646.09
2022-11-16T04:46:56.575Z,97648.81
2022-11-16T04:49:23.115Z,97645.31
2022-11-16T04:51:49.645Z,97648.41
2022-11-16T04:54:17.730Z,97649.53
2022-11-16T04:56:44.362Z,97644.47
2022-11-16T04:59:11.306Z,97640.50
2022-11-16T05:01:37.826Z,97650.22
2022-11-16T05:04:04.537Z,97638.59
2022-11-16T05:06:31.063Z,97629.66
2022-11-16T05:08:57.571Z,97638.59
2022-11-16T05:11:25.470Z,97632.81
2022-11-16T05:13:51.961Z,97632.38
2022-11-16T05:16:18.610Z,97631.25
2022-11-16T05:18:45.289Z,97635.88
2022-11-16T05:21:11.776Z,97637.00
2022-11-16T05:23:38.409Z,97628.44
2022-11-16T05:26:05.119Z,97631.16
2022-11-16T05:28:33.557Z,97632.66
2022-11-16T05:31:00.469Z,97631.16
2022-11-16T05:33:26.973Z,97638.94
2022-11-16T05:35:53.698Z,97623.81
2022-11-16T05:38:20.294Z,97629.59
2022-11-16T05:40:46.954Z,97638.09
2022-11-16T05:43:13.488Z,97632.66
2022-11-16T05:45:42.732Z,97629.22
2022-11-16T05:48:09.250Z,97629.59
2022-11-16T05:50:42.299Z,97628.44
2022-11-16T05:53:09.367Z,97626.44
2022-11-16T05:55:36.045Z,97631.88
2022-11-16T05:58:02.721Z,97631.44
2022-11-16T06:00:29.264Z,97625.56
2022-11-16T06:02:57.321Z,97626.66
2022-11-16T06:05:23.845Z,97627.47
2022-11-16T06:07:50.546Z,97627.81
2022-11-16T06:10:17.222Z,97627.81
2022-11-16T06:12:43.738Z,97637.88
2022-11-16T06:15:10.746Z,97632.81
2022-11-16T06:17:37.236Z,97635.53
2022-11-16T06:20:06.246Z,97628.53
2022-11-16T06:22:32.784Z,97634.38
2022-11-16T06:24:59.276Z,97645.34
2022-11-16T06:27:25.817Z,97639.13
2022-11-16T06:29:52.353Z,97643.41
2022-11-16T06:32:18.920Z,97649.16
2022-11-16T06:34:45.434Z,97648.38
2022-11-16T06:37:13.453Z,97653.91
2022-11-16T06:39:40.003Z,97655.41
2022-11-16T06:42:06.518Z,97663.53
2022-11-16T06:44:33.053Z,97665.44
2022-11-16T06:46:59.522Z,97668.13
2022-11-16T06:49:26.050Z,97657.63
2022-11-16T06:51:52.699Z,97665.78
2022-11-16T06:54:20.553Z,97661.94
2022-11-16T06:56:47.200Z,97668.13
2022-11-16T06:59:13.901Z,97671.97
2022-11-16T07:01:40.490Z,97668.13
2022-11-16T07:04:07.022Z,97673.25
2022-11-16T07:06:33.683Z,97674.03
2022-11-16T07:09:00.196Z,97681.03
2022-11-16T07:11:28.075Z,97678.44
2022-11-16T07:13:54.609Z,97674.94
2022-11-16T07:16:21.142Z,97672.28
2022-11-16T07:18:47.791Z,97682.00
2022-11-16T07:21:15.977Z,97689.78
2022-11-16T07:23:43.203Z,97690.91
2022-11-16T07:26:11.293Z,97690.91
2022-11-16T07:28:43.368Z,97689.78
2022-11-16T07:31:14.825Z,97689.00
2022-11-16T07:33:41.422Z,97686.28
2022-11-16T07:36:10.197Z,97690.56
2022-11-16T07:38:36.830Z,97696.78
2022-11-16T07:41:05.806Z,97695.31
2022-11-16T07:43:33.714Z,97703.88
2022-11-16T07:46:30.488Z,97697.66
2022-11-16T07:48:50.288Z,97698.88
2022-11-16T07:51:18.847Z,97694.69
2022-11-16T07:53:46.200Z,97696.69
2022-11-16T07:56:12.874Z,97691.69
2022-11-16T07:58:39.879Z,97699.13
2022-11-16T08:01:10.003Z,97701.16
2022-11-16T08:03:37.280Z,97703.16
2022-11-16T08:06:06.293Z,97705.50
2022-11-16T08:08:33.556Z,97707.53
2022-11-16T08:11:00.645Z,97706.03
2022-11-16T08:13:27.194Z,97705.69
2022-11-16T08:15:53.805Z,97702.72
2022-11-16T08:18:21.662Z,97703.91
2022-11-16T08:20:48.183Z,97707.06
2022-11-16T08:23:14.723Z,97709.09
2022-11-16T08:25:41.263Z,97716.16
2022-11-16T08:28:07.765Z,97710.81
2022-11-16T08:30:34.330Z,97709.69
2022-11-16T08:33:00.931Z,97718.59
2022-11-16T08:35:28.786Z,97729.13
2022-11-16T08:37:55.312Z,97719.06
2022-11-16T08:40:21.851Z,97727.19
2022-11-16T08:42:48.394Z,97727.19
2022-11-16T08:45:15.145Z,97733.13
2022-11-16T08:47:41.693Z,97729.72
2022-11-16T08:50:08.856Z,97734.34
2022-11-16T08:52:36.879Z,97736.44
2022-11-16T08:55:03.689Z,97739.25
2022-11-16T08:57:30.229Z,97743.59
2022-11-16T08:59:56.807Z,97741.75
2022-11-16T09:02:23.301Z,97739.44
2022-11-16T09:04:49.833Z,97740.69
2022-11-16T09:07:16.416Z,97748.81
2022-11-16T09:09:44.485Z,97753.91
2022-11-16T09:12:11.151Z,97741.91
2022-11-16T09:14:37.689Z,97739.69
2022-11-16T09:17:04.225Z,97737.91
2022-11-16T09:19:30.793Z,97746.56
2022-11-16T09:21:57.540Z,97743.22
2022-11-16T09:24:24.272Z,97746.00
2022-11-16T09:26:52.152Z,97746.84
2022-11-16T09:29:18.706Z,97743.78
2022-11-16T09:31:45.247Z,97745.78
2022-11-16T09:34:11.764Z,97742.06
2022-11-16T09:36:38.331Z,97742.63
2022-11-16T09:42:02.871Z,97749.75
2022-11-16T09:44:47.161Z,97745.53
2022-11-16T09:47:18.144Z,97742.44
2022-11-16T09:49:49.127Z,97744.41
2022-11-16T09:52:33.754Z,97748.97
2022-11-16T09:55:05.848Z,97759.53
2022-11-16T09:57:37.326Z,97759.16
2022-11-16T10:00:13.203Z,97750.28
2022-11-16T10:02:44.197Z,97761.00
2022-11-16T10:05:20.121Z,97763.28
2022-11-16T10:07:50.281Z,97765.09
2022-11-16T10:10:21.302Z,97763.28
2022-11-16T10:12:54.450Z,97767.56
2022-11-16T10:15:33.964Z,97770.94
2022-11-16T10:18:24.276Z,97776.22
2022-11-16T10:21:02.620Z,97767.84
2022-11-16T10:23:41.942Z,97768.09
2022-11-16T10:26:21.219Z,97775.13
2022-11-16T10:29:04.341Z,97765.91
2022-11-16T10:31:44.994Z,97759.28
2022-11-16T10:34:19.833Z,97763.19
2022-11-16T10:36:46.384Z,97763.59
2022-11-16T10:39:14.502Z,97760.69
2022-11-16T10:41:43.628Z,97766.75
2022-11-16T10:44:19.084Z,97758.00
2022-11-16T10:46:56.018Z,97769.66
2022-11-16T10:49:30.489Z,97752.66
2022-11-16T10:51:57.664Z,97747.16
2022-11-16T10:54:24.215Z,97755.09
2022-11-16T10:56:54.473Z,97752.13
2022-11-16T10:59:36.944Z,97756.66
2022-11-16T11:02:31.457Z,97748.69
2022-11-16T11:05:02.849Z,97745.78
2022-11-16T11:07:32.017Z,97750.97
2022-11-16T11:09:58.938Z,97763.31
2022-11-16T11:12:26.749Z,97752.31
2022-11-16T11:15:22.826Z,97755.72
2022-11-16T11:18:11.166Z,97745.19
2022-11-16T11:20:44.274Z,97747.66
2022-11-16T11:23:14.707Z,97745.88
2022-11-16T11:25:50.143Z,97751.63
2022-11-16T11:28:20.879Z,97754.78
2022-11-16T11:30:59.210Z,97756.88
2022-11-16T11:33:28.650Z,97748.13
2022-11-16T11:36:05.775Z,97755.84
2022-11-16T11:38:33.375Z,97753.06
2022-11-16T11:41:01.376Z,97747.25
2022-11-16T11:43:29.270Z,97745.75
2022-11-16T11:46:05.910Z,97744.88
2022-11-16T11:48:41.183Z,97748.03
2022-11-16T11:51:15.499Z,97745.41
2022-11-16T11:53:55.454Z,97746.97
2022-11-16T11:56:23.003Z,97750.44
2022-11-16T11:58:49.658Z,97745.03
2022-11-16T12:01:54.468Z,97738.78
2022-11-16T12:05:12.017Z,97738.34
2022-11-16T12:07:57.210Z,97728.81
2022-11-16T12:10:35.508Z,97732.25
2022-11-16T12:13:22.040Z,97729.03
2022-11-16T12:16:01.637Z,97721.47
2022-11-16T12:18:45.144Z,97728.06
2022-11-16T12:21:13.360Z,97725.81
2022-11-16T12:23:58.621Z,97723.88
2022-11-16T12:26:33.415Z,97728.50
2022-11-16T12:29:16.450Z,97725.22
2022-11-16T12:31:56.945Z,97724.13
2022-11-16T12:34:38.452Z,97728.09
2022-11-16T12:37:14.249Z,97723.84
2022-11-16T12:39:44.199Z,97716.44
2022-11-16T12:42:33.818Z,97719.19
2022-11-16T12:45:32.643Z,97720.25
2022-11-16T12:48:17.412Z,97715.94
2022-11-16T12:50:53.313Z,97716.69
2022-11-16T12:53:39.836Z,97716.19
2022-11-16T12:56:15.214Z,97714.44
2022-11-16T12:59:10.939Z,97730.31
2022-11-16T13:01:45.341Z,97725.44
2022-11-16T13:04:18.637Z,97727.94
2022-11-16T13:06:52.439Z,97723.91
2022-11-16T13:09:23.824Z,97731.22
2022-11-16T13:11:54.421Z,97729.97
2022-11-16T13:14:24.917Z,97734.56
2022-11-16T13:16:53.560Z,97730.31
2022-11-16T13:19:20.961Z,97734.09
2022-11-16T13:21:55.057Z,97729.09
2022-11-16T13:24:44.992Z,97720.50
2022-11-16T13:27:22.512Z,97721.50
2022-11-16T13:29:57.234Z,97716.84
2022-11-16T13:32:32.601Z,97722.28
2022-11-16T13:35:01.387Z,97717.16
2022-11-16T13:37:48.963Z,97707.31
2022-11-16T13:40:27.453Z,97706.47
2022-11-16T13:43:06.922Z,97711.09
2022-11-16T13:45:38.667Z,97703.22
2022-11-16T13:48:16.995Z,97699.31
2022-11-16T13:50:49.387Z,97686.72
2022-11-16T13:54:37.771Z,97689.81
2022-11-16T13:56:13.167Z,97685.78
2022-11-16T13:58:46.052Z,97686.81
2022-11-16T14:01:13.990Z,97686.72
2022-11-16T14:03:41.351Z,97684.25
2022-11-16T14:06:40.751Z,97690.06
2022-11-16T14:09:41.281Z,97688.34
2022-11-16T14:12:49.191Z,97689.44
2022-11-16T14:15:17.383Z,97683.00
2022-11-16T14:17:51.928Z,97681.72
2022-11-16T14:20:35.561Z,97677.03
2022-11-16T14:23:13.624Z,97673.31
2022-11-16T14:25:48.913Z,97677.47
2022-11-16T14:28:38.631Z,97676.19
2022-11-16T14:31:15.032Z,97680.00
2022-11-16T14:33:42.349Z,97671.03
2022-11-16T14:36:10.464Z,97665.53
2022-11-16T14:38:40.050Z,97670.19
2022-11-16T14:41:18.017Z,97659.75
2022-11-16T14:43:49.670Z,97664.47
2022-11-16T14:46:21.440Z,97656.59
2022-11-16T14:48:48.733Z,97663.16
2022-11-16T14:51:20.551Z,97654.22
2022-11-16T14:53:50.484Z,97649.53
2022-11-16T14:56:19.042Z,97657.25
2022-11-16T14:58:53.373Z,97663.81
2022-11-16T15:01:22.614Z,97667.31
2022-11-16T15:03:54.166Z,97669.56
2022-11-16T15:06:21.213Z,97672.09
2022-11-16T15:08:51.310Z,97670.84
2022-11-16T15:11:25.700Z,97671.53
2022-11-16T15:13:53.774Z,97661.41
2022-11-16T15:16:20.734Z,97657.91
2022-11-16T15:18:57.715Z,97650.53
2022-11-16T15:21:24.998Z,97651.69
2022-11-16T15:24:15.439Z,97644.81
2022-11-16T15:26:39.829Z,97644.88
2022-11-16T15:29:06.488Z,97640.25
2022-11-16T15:31:36.356Z,97645.69
2022-11-16T15:34:02.910Z,97638.66
2022-11-16T15:36:33.020Z,97634.16
2022-11-16T15:39:02.352Z,97638.44
2022-11-16T15:41:29.128Z,97647.38
2022-11-16T15:44:13.913Z,97653.38
2022-11-16T15:46:44.282Z,97646.06
2022-11-16T15:49:24.531Z,97638.72
2022-11-16T15:51:51.038Z,97650.31
2022-11-16T15:54:23.438Z,97648.66
2022-11-16T15:56:51.058Z,97646.25
2022-11-16T15:59:24.953Z,97652.75
2022-11-16T16:01:51.566Z,97649.09
2022-11-16T16:04:18.957Z,97651.31
2022-11-16T16:06:47.862Z,97656.25
2022-11-16T16:09:21.688Z,97643.78
2022-11-16T16:11:48.623Z,97647.59
2022-11-16T16:14:26.577Z,97650.31
2022-11-16T16:16:54.716Z,97635.50
2022-11-16T16:19:31.890Z,97637.88
2022-11-16T16:21:58.427Z,97646.72
2022-11-16T16:24:37.604Z,97647.50
2022-11-16T16:27:10.819Z,97651.88
2022-11-16T16:29:38.794Z,97654.16
2022-11-16T16:32:05.841Z,97647.91
2022-11-16T16:34:33.171Z,97643.44
2022-11-16T16:37:01.926Z,97639.06
2022-11-16T16:39:28.439Z,97633.78
2022-11-16T16:41:55.122Z,97640.63
2022-11-16T16:44:21.783Z,97632.59
2022-11-16T16:46:49.699Z,97631.94
2022-11-16T16:49:16.207Z,97627.50
2022-11-16T16:51:42.869Z,97620.59
2022-11-16T16:54:13.427Z,97624.84
2022-11-16T16:56:40.073Z,97618.03
2022-11-16T16:59:06.654Z,97622.47
2022-11-16T17:01:33.322Z,97623.09
2022-11-16T17:04:01.274Z,97626.44
2022-11-16T17:06:27.874Z,97622.41
2022-11-16T17:08:54.391Z,97633.16
2022-11-16T17:11:21.123Z,97626.50
2022-11-16T17:13:47.892Z,97636.53
2022-11-16T17:16:14.701Z,97626.41
2022-11-16T17:18:41.530Z,97618.06
2022-11-16T17:21:09.897Z,97622.28
2022-11-16T17:23:37.414Z,97623.66
2022-11-16T17:26:04.520Z,97615.69
2022-11-16T17:28:31.076Z,97604.59
2022-11-16T17:31:01.230Z,97608.22
2022-11-16T17:33:27.732Z,97615.03
2022-11-16T17:35:55.335Z,97597.00
2022-11-16T17:38:23.182Z,97600.22
2022-11-16T17:40:49.801Z,97581.75
2022-11-16T17:43:16.297Z,97583.91
2022-11-16T17:45:42.835Z,97583.81
2022-11-16T17:48:09.378Z,97579.88
2022-11-16T17:50:35.917Z,97589.69
2022-11-16T17:53:02.431Z,97587.91
2022-11-16T17:55:30.319Z,97586.03
2022-11-16T17:57:56.856Z,97578.50
2022-11-16T18:00:23.582Z,97587.06
2022-11-16T18:02:50.098Z,97594.63
2022-11-16T18:05:16.761Z,97589.34
2022-11-16T18:07:43.573Z,97594.09
2022-11-16T18:10:11.811Z,97595.31
2022-11-16T18:12:42.877Z,97595.53
2022-11-16T18:17:57.290Z,97598.25
2022-11-16T18:20:24.058Z,97600.00
2022-11-16T18:22:50.603Z,97590.22
2022-11-16T18:25:17.270Z,97590.22
2022-11-16T18:27:45.110Z,97592.22
2022-11-16T18:30:12.647Z,97583.47
2022-11-16T18:32:39.326Z,97578.53
2022-11-16T18:35:06.605Z,97576.38
2022-11-16T18:37:33.166Z,97573.69
2022-11-16T18:39:59.699Z,97578.09
2022-11-16T18:42:26.194Z,97570.88
2022-11-16T18:44:54.080Z,97568.41
2022-11-16T18:47:20.576Z,97573.25
2022-11-16T18:49:47.108Z,97565.59
2022-11-16T18:52:13.608Z,97567.28
2022-11-16T18:54:40.221Z,97567.38
2022-11-16T18:57:06.725Z,97557.44
2022-11-16T18:59:33.248Z,97558.69
2022-11-16T19:02:01.202Z,97549.91
2022-11-16T19:04:27.701Z,97548.53
2022-11-16T19:06:54.323Z,97542.66
2022-11-16T19:09:20.861Z,97538.56
2022-11-16T19:11:47.533Z,97548.47
2022-11-16T19:14:14.028Z,97542.84
2022-11-16T19:16:49.005Z,97546.75
2022-11-16T19:19:19.125Z,97555.78
2022-11-16T19:21:45.861Z,97553.50
2022-11-16T19:24:12.536Z,97560.16
2022-11-16T19:26:39.227Z,97558.34
2022-11-16T19:29:05.890Z,97553.38
2022-11-16T19:31:32.997Z,97542.53
2022-11-16T19:34:01.487Z,97543.00
2022-11-16T19:36:30.430Z,97549.19
2022-11-16T19:38:57.190Z,97533.38
2022-11-16T19:41:25.143Z,97525.63
2022-11-16T19:43:53.310Z,97521.44
2022-11-16T19:46:19.908Z,97523.44
2022-11-16T19:48:46.540Z,97523.91
2022-11-16T19:51:15.429Z,97535.25
2022-11-16T19:53:43.493Z,97539.28
2022-11-16T19:56:11.806Z,97532.38
2022-11-16T19:58:38.366Z,97534.41
2022-11-16T20:01:07.108Z,97541.13
2022-11-16T20:03:34.370Z,97539.22
2022-11-16T20:06:06.408Z,97537.75
2022-11-16T20:08:33.175Z,97533.19
2022-11-16T20:11:01.248Z,97543.22
2022-11-16T20:13:27.800Z,97541.31
2022-11-16T20:15:54.320Z,97545.59
2022-11-16T20:18:20.819Z,97537.13
2022-11-16T20:20:47.454Z,97532.84
2022-11-16T20:23:14.753Z,97537.59
2022-11-16T20:25:41.322Z,97548.06
2022-11-16T20:28:09.194Z,97545.38
2022-11-16T20:30:35.723Z,97545.78
2022-11-16T20:33:02.238Z,97543.06
2022-11-16T20:35:28.782Z,97543.78
2022-11-16T20:37:55.347Z,97540.28
2022-11-16T20:40:21.870Z,97536.78
2022-11-16T20:42:48.393Z,97534.78
2022-11-16T20:45:16.448Z,97526.31
2022-11-16T20:47:42.971Z,97522.13
2022-11-16T20:50:09.842Z,97521.78
2022-11-16T20:52:41.265Z,97512.59
2022-11-16T20:55:09.984Z,97517.06
2022-11-16T20:57:36.831Z,97507.09
2022-11-16T21:00:04.487Z,97513.38
2022-11-16T21:02:32.362Z,97513.47
2022-11-16T21:05:00.440Z,97504.66
2022-11-16T21:07:28.095Z,97503.53
2022-11-16T21:09:54.609Z,97507.44
2022-11-16T21:12:21.140Z,97501.69
2022-11-16T21:14:47.679Z,97500.88
2022-11-16T21:17:14.206Z,97502.47
2022-11-16T21:19:59.539Z,97498.97
2022-11-16T21:25:01.693Z,97496.94
2022-11-16T21:27:28.243Z,97493.03
2022-11-16T21:29:54.790Z,97489.88
2022-11-16T21:32:21.306Z,97492.50
2022-11-16T21:34:49.198Z,97490.13
2022-11-16T21:37:15.720Z,97495.56
2022-11-16T21:39:42.785Z,97495.94
2022-11-16T21:42:09.354Z,97485.09
2022-11-16T21:44:35.899Z,97497.84
2022-11-16T21:47:02.401Z,97489.72
2022-11-16T21:49:28.934Z,97492.00
2022-11-16T21:51:56.795Z,97485.34
2022-11-16T21:54:23.509Z,97484.09
2022-11-16T21:56:50.065Z,97486.41
2022-11-16T21:59:16.554Z,97471.97
2022-11-16T22:01:43.124Z,97462.28
2022-11-16T22:04:09.813Z,97463.78
2022-11-16T22:06:36.400Z,97466.03
2022-11-16T22:09:04.480Z,97467.06
2022-11-16T22:11:31.011Z,97463.16
2022-11-16T22:13:57.518Z,97454.16
2022-11-16T22:16:24.206Z,97461.84
2022-11-16T22:18:50.928Z,97462.56
2022-11-16T22:21:17.641Z,97467.53
2022-11-16T22:23:44.367Z,97462.09
2022-11-16T22:26:13.808Z,97457.38
2022-11-16T22:28:40.780Z,97453.88
2022-11-16T22:31:09.700Z,97457.72
2022-11-16T22:33:37.264Z,97452.31
2022-11-16T22:36:05.071Z,97451.97
2022-11-16T22:38:31.772Z,97444.63
2022-11-16T22:40:58.396Z,97442.28
2022-11-16T22:43:28.029Z,97440.34
2022-11-16T22:45:57.204Z,97425.25
2022-11-16T22:48:23.722Z,97422.09
2022-11-16T22:50:50.244Z,97417.91
2022-11-16T22:53:16.727Z,97409.44
2022-11-16T22:55:43.420Z,97402.09
2022-11-16T22:58:10.088Z,97400.44
2022-11-16T23:00:42.009Z,97405.94
2022-11-16T23:03:09.183Z,97405.59
2022-11-16T23:05:35.761Z,97404.47
2022-11-16T23:08:02.978Z,97397.13
2022-11-16T23:10:29.738Z,97392.84
2022-11-16T23:12:56.259Z,97376.63
2022-11-16T23:15:22.983Z,97381.59
2022-11-16T23:17:50.846Z,97371.09
2022-11-16T23:20:18.064Z,97370.66
2022-11-16T23:22:44.618Z,97358.63
2022-11-16T23:25:12.278Z,97353.56
2022-11-16T23:27:42.497Z,97367.44
2022-11-16T23:30:12.799Z,97368.56
2022-11-16T23:32:40.175Z,97360.09
2022-11-16T23:35:08.878Z,97367.88
2022-11-16T23:37:48.898Z,97357.50
2022-11-16T23:40:16.221Z,97358.97
2022-11-16T23:42:42.758Z,97346.47
2022-11-16T23:45:09.566Z,97336.81
2022-11-16T23:47:36.118Z,97327.03
2022-11-16T23:50:02.854Z,97314.19
2022-11-16T23:52:30.743Z,97316.81
2022-11-16T23:54:57.433Z,97317.88
2022-11-16T23:57:23.960Z,97317.41
2022-11-16T23:59:50.470Z,97317.34
